createdAt,value
2023-02-02T00:00:04.758Z,4.31
2023-02-02T00:01:37.457Z,4.26
2023-02-02T00:03:10.793Z,4.32
2023-02-02T00:04:42.395Z,4.39
2023-02-02T00:06:23.849Z,4.29
2023-02-02T00:07:55.502Z,4.29
2023-02-02T00:09:30.219Z,4.38
2023-02-02T00:11:02.503Z,4.41
2023-02-02T00:12:35.069Z,4.45
2023-02-02T00:14:07.918Z,4.36
2023-02-02T00:15:40.009Z,4.36
2023-02-02T00:17:11.780Z,4.36
2023-02-02T00:18:43.456Z,4.35
2023-02-02T00:20:15.434Z,4.37
2023-02-02T00:21:47.796Z,4.38
2023-02-02T00:23:19.694Z,4.32
2023-02-02T00:24:51.321Z,4.34
2023-02-02T00:26:23.691Z,4.32
2023-02-02T00:27:55.735Z,4.27
2023-02-02T00:29:29.807Z,4.23
2023-02-02T00:31:01.600Z,4.17
2023-02-02T00:32:33.492Z,4.16
2023-02-02T00:34:05.225Z,4.18
2023-02-02T00:35:40.744Z,4.30
2023-02-02T00:37:12.360Z,4.22
2023-02-02T00:38:44.446Z,4.22
2023-02-02T00:40:16.296Z,4.26
2023-02-02T00:41:48.547Z,4.25
2023-02-02T00:43:20.159Z,4.25
2023-02-02T00:45:10.122Z,4.24
2023-02-02T00:46:42.315Z,4.27
2023-02-02T00:48:13.867Z,4.27
2023-02-02T00:49:45.680Z,4.23
2023-02-02T00:51:17.251Z,4.16
2023-02-02T00:52:49.458Z,4.24
2023-02-02T00:54:21.078Z,4.21
2023-02-02T00:55:52.656Z,4.15
2023-02-02T00:57:24.180Z,4.15
2023-02-02T00:58:55.963Z,4.29
2023-02-02T01:00:28.687Z,4.26
2023-02-02T01:02:01.279Z,4.36
2023-02-02T01:03:32.886Z,4.29
2023-02-02T01:05:04.700Z,4.37
2023-02-02T01:06:38.009Z,4.22
2023-02-02T01:08:09.622Z,4.31
2023-02-02T01:09:41.153Z,4.39
2023-02-02T01:11:12.833Z,4.37
2023-02-02T01:12:45.016Z,4.29
2023-02-02T01:14:17.365Z,4.27
2023-02-02T01:15:48.892Z,4.23
2023-02-02T01:17:20.615Z,4.31
2023-02-02T01:18:52.368Z,4.28
2023-02-02T01:20:24.444Z,4.38
2023-02-02T01:21:56.276Z,4.31
2023-02-02T01:23:28.563Z,4.29
2023-02-02T01:25:00.918Z,4.41
2023-02-02T01:26:32.798Z,4.37
2023-02-02T01:28:05.445Z,4.33
2023-02-02T01:29:36.974Z,4.31
2023-02-02T01:31:15.609Z,4.33
2023-02-02T01:32:47.213Z,4.31
2023-02-02T01:34:18.876Z,4.35
2023-02-02T01:35:53.659Z,4.37
2023-02-02T01:37:25.224Z,4.38
2023-02-02T01:38:57.032Z,4.32
2023-02-02T01:40:28.997Z,4.40
2023-02-02T01:42:00.651Z,4.33
2023-02-02T01:43:44.464Z,4.35
2023-02-02T01:45:27.828Z,4.37
2023-02-02T01:46:59.478Z,4.39
2023-02-02T01:48:34.439Z,4.42
2023-02-02T01:50:09.364Z,4.40
2023-02-02T01:51:47.844Z,4.40
2023-02-02T01:53:20.668Z,4.30
2023-02-02T01:54:56.428Z,4.28
2023-02-02T01:56:37.492Z,4.31
2023-02-02T01:58:18.861Z,4.32
2023-02-02T01:59:54.504Z,4.43
2023-02-02T02:01:26.769Z,4.32
2023-02-02T02:03:08.179Z,4.37
2023-02-02T02:04:42.388Z,4.30
2023-02-02T02:06:17.795Z,4.27
2023-02-02T02:07:52.287Z,4.39
2023-02-02T02:09:23.910Z,4.36
2023-02-02T02:10:56.323Z,4.37
2023-02-02T02:12:27.968Z,4.46
2023-02-02T02:14:21.698Z,4.40
2023-02-02T02:16:21.391Z,4.36
2023-02-02T02:18:45.337Z,4.39
2023-02-02T02:21:09.632Z,4.32
2023-02-02T02:23:27.855Z,4.45
2023-02-02T02:25:33.410Z,4.39
2023-02-02T02:27:51.773Z,4.44
2023-02-02T02:29:44.930Z,4.38
2023-02-02T02:31:46.077Z,4.31
2023-02-02T02:33:26.314Z,4.34
2023-02-02T02:35:21.297Z,4.29
2023-02-02T02:37:26.889Z,4.33
2023-02-02T02:39:13.313Z,4.27
2023-02-02T02:41:00.567Z,4.26
2023-02-02T02:42:38.581Z,4.22
2023-02-02T02:44:14.683Z,4.26
2023-02-02T02:45:46.593Z,4.12
2023-02-02T02:47:20.180Z,3.95
2023-02-02T02:48:52.594Z,3.99
2023-02-02T02:50:24.471Z,4.09
2023-02-02T02:51:56.667Z,3.96
2023-02-02T02:53:38.484Z,3.92
2023-02-02T02:55:11.865Z,3.80
2023-02-02T02:56:52.431Z,3.96
2023-02-02T02:58:50.145Z,3.97
2023-02-02T03:00:24.708Z,3.84
2023-02-02T03:02:10.950Z,3.75
2023-02-02T03:04:06.815Z,3.81
2023-02-02T03:06:00.724Z,3.74
2023-02-02T03:07:42.441Z,3.82
2023-02-02T03:09:21.418Z,3.74
2023-02-02T03:10:55.591Z,3.71
2023-02-02T03:12:27.372Z,3.83
2023-02-02T03:13:59.016Z,3.80
2023-02-02T03:15:30.658Z,3.86
2023-02-02T03:17:02.427Z,3.87
2023-02-02T03:18:34.771Z,4.11
2023-02-02T03:20:06.835Z,4.03
2023-02-02T03:21:38.452Z,4.09
2023-02-02T03:23:10.052Z,4.08
2023-02-02T03:24:41.570Z,4.09
2023-02-02T03:26:13.176Z,4.07
2023-02-02T03:27:44.965Z,4.09
2023-02-02T03:29:17.270Z,4.16
2023-02-02T03:30:49.508Z,4.14
2023-02-02T03:32:21.378Z,4.15
2023-02-02T03:33:52.938Z,4.14
2023-02-02T03:35:26.054Z,4.13
2023-02-02T03:36:57.784Z,4.03
2023-02-02T03:38:29.351Z,4.11
2023-02-02T03:40:00.979Z,4.12
2023-02-02T03:41:32.587Z,4.17
2023-02-02T03:43:04.754Z,4.09
2023-02-02T03:44:36.432Z,4.20
2023-02-02T03:46:08.329Z,4.08
2023-02-02T03:47:39.957Z,4.13
2023-02-02T03:49:11.556Z,4.08
2023-02-02T03:50:43.093Z,4.13
2023-02-02T03:52:14.680Z,4.11
2023-02-02T03:53:49.280Z,4.10
2023-02-02T03:55:21.917Z,4.17
2023-02-02T03:56:53.737Z,4.17
2023-02-02T03:58:25.311Z,4.11
2023-02-02T03:59:57.031Z,4.08
2023-02-02T04:01:29.836Z,4.06
2023-02-02T04:03:01.640Z,4.20
2023-02-02T04:04:33.671Z,4.23
2023-02-02T04:06:05.469Z,4.22
2023-02-02T04:07:37.055Z,4.19
2023-02-02T04:09:09.036Z,4.18
2023-02-02T04:10:42.460Z,4.27
2023-02-02T04:12:14.100Z,4.19
2023-02-02T04:13:45.643Z,4.07
2023-02-02T04:15:17.263Z,4.19
2023-02-02T04:16:48.828Z,4.12
2023-02-02T04:18:20.368Z,4.16
2023-02-02T04:19:58.048Z,4.26
2023-02-02T04:21:29.692Z,4.24
2023-02-02T04:23:01.352Z,4.32
2023-02-02T04:24:32.936Z,4.33
2023-02-02T04:26:05.440Z,4.24
2023-02-02T04:27:37.110Z,4.25
2023-02-02T04:29:09.012Z,4.19
2023-02-02T04:30:40.632Z,4.22
2023-02-02T04:32:14.181Z,4.31
2023-02-02T04:33:45.813Z,4.27
2023-02-02T04:35:17.478Z,4.24
2023-02-02T04:36:49.100Z,4.33
2023-02-02T04:38:20.781Z,4.24
2023-02-02T04:39:53.847Z,4.26
2023-02-02T04:41:25.446Z,4.27
2023-02-02T04:42:58.357Z,4.28
2023-02-02T04:44:29.907Z,4.36
2023-02-02T04:46:01.713Z,4.35
2023-02-02T04:47:33.315Z,4.31
2023-02-02T04:49:04.878Z,4.29
2023-02-02T04:50:36.508Z,4.24
2023-02-02T04:52:08.166Z,4.28
2023-02-02T04:53:42.444Z,4.25
2023-02-02T04:55:14.364Z,4.33
2023-02-02T04:56:45.975Z,4.23
2023-02-02T04:58:17.518Z,4.22
2023-02-02T04:59:49.099Z,4.25
2023-02-02T05:01:20.994Z,4.21
2023-02-02T05:02:52.647Z,4.32
2023-02-02T05:04:24.329Z,4.23
2023-02-02T05:06:03.133Z,4.17
2023-02-02T05:07:34.910Z,4.13
2023-02-02T05:09:06.585Z,4.12
2023-02-02T05:10:41.599Z,4.18
2023-02-02T05:12:13.185Z,4.16
2023-02-02T05:13:49.648Z,4.15
2023-02-02T05:15:22.518Z,4.15
2023-02-02T05:16:54.494Z,4.14
2023-02-02T05:18:26.333Z,4.13
2023-02-02T05:19:57.977Z,4.09
2023-02-02T05:21:29.651Z,4.06
2023-02-02T05:23:01.274Z,4.13
2023-02-02T05:24:32.890Z,4.26
2023-02-02T05:26:04.712Z,4.20
2023-02-02T05:27:36.316Z,4.25
2023-02-02T05:29:09.226Z,4.21
2023-02-02T05:30:40.862Z,4.21
2023-02-02T05:32:12.498Z,4.16
2023-02-02T05:33:44.311Z,4.22
2023-02-02T05:35:16.086Z,4.22
2023-02-02T05:36:47.792Z,4.23
2023-02-02T05:38:19.347Z,4.25
2023-02-02T05:39:52.198Z,4.24
2023-02-02T05:41:23.878Z,4.21
2023-02-02T05:42:55.440Z,4.22
2023-02-02T05:44:27.090Z,4.15
2023-02-02T05:45:59.081Z,4.25
2023-02-02T05:47:30.760Z,4.26
2023-02-02T05:49:05.150Z,4.27
2023-02-02T05:50:36.747Z,4.20
2023-02-02T05:52:17.722Z,4.23
2023-02-02T05:53:49.713Z,4.28
2023-02-02T05:55:21.392Z,4.22
2023-02-02T05:56:55.879Z,4.33
2023-02-02T05:58:28.198Z,4.25
2023-02-02T05:59:59.862Z,4.25
2023-02-02T06:01:31.523Z,4.21
2023-02-02T06:03:03.303Z,4.30
2023-02-02T06:04:34.902Z,4.36
2023-02-02T06:06:07.157Z,4.27
2023-02-02T06:07:38.904Z,4.22
2023-02-02T06:09:10.771Z,4.25
2023-02-02T06:10:42.559Z,4.21
2023-02-02T06:12:14.195Z,4.24
2023-02-02T06:13:46.230Z,4.23
2023-02-02T06:15:17.938Z,4.28
2023-02-02T06:16:49.588Z,4.22
2023-02-02T06:18:21.295Z,4.28
2023-02-02T06:19:52.993Z,4.35
2023-02-02T06:21:24.809Z,4.22
2023-02-02T06:22:56.381Z,4.24
2023-02-02T06:24:28.018Z,4.23
2023-02-02T06:25:59.931Z,4.18
2023-02-02T06:27:31.675Z,4.13
2023-02-02T06:29:03.523Z,4.14
2023-02-02T06:30:35.201Z,4.20
2023-02-02T06:32:06.839Z,4.16
2023-02-02T06:33:38.706Z,4.22
2023-02-02T06:35:10.414Z,4.19
2023-02-02T06:36:42.114Z,4.19
2023-02-02T06:38:13.790Z,4.27
2023-02-02T06:39:45.423Z,4.26
2023-02-02T06:41:17.845Z,4.32
2023-02-02T06:42:55.836Z,4.20
2023-02-02T06:44:27.695Z,4.18
2023-02-02T06:45:59.425Z,4.17
2023-02-02T06:47:33.039Z,4.24
2023-02-02T06:49:04.637Z,4.28
2023-02-02T06:50:39.097Z,4.27
2023-02-02T06:52:10.780Z,4.28
2023-02-02T06:53:42.400Z,4.28
2023-02-02T06:55:14.004Z,4.35
2023-02-02T06:56:45.636Z,4.29
2023-02-02T06:58:17.200Z,4.22
2023-02-02T06:59:48.831Z,4.27
2023-02-02T07:01:20.544Z,4.27
2023-02-02T07:02:52.328Z,4.26
2023-02-02T07:04:24.112Z,4.26
2023-02-02T07:05:55.715Z,4.36
2023-02-02T07:07:27.814Z,4.38
2023-02-02T07:09:02.766Z,4.35
2023-02-02T07:11:14.363Z,4.41
2023-02-02T07:12:29.048Z,4.35
2023-02-02T07:14:00.585Z,4.38
2023-02-02T07:15:32.927Z,4.35
2023-02-02T07:17:04.635Z,4.29
2023-02-02T07:18:36.937Z,4.32
2023-02-02T07:20:09.014Z,4.39
2023-02-02T07:21:40.670Z,4.44
2023-02-02T07:23:12.272Z,4.45
2023-02-02T07:24:43.843Z,4.47
2023-02-02T07:26:17.977Z,4.49
2023-02-02T07:27:53.623Z,4.44
2023-02-02T07:29:25.481Z,4.47
2023-02-02T07:30:57.361Z,4.51
2023-02-02T07:32:29.068Z,4.41
2023-02-02T07:34:00.752Z,4.42
2023-02-02T07:35:32.393Z,4.48
2023-02-02T07:37:04.165Z,4.50
2023-02-02T07:38:35.730Z,4.56
2023-02-02T07:40:08.280Z,4.56
2023-02-02T07:41:39.928Z,4.58
2023-02-02T07:43:20.499Z,4.50
2023-02-02T07:44:52.091Z,4.52
2023-02-02T07:46:23.772Z,4.50
2023-02-02T07:47:57.113Z,4.53
2023-02-02T07:49:28.788Z,4.43
2023-02-02T07:51:01.695Z,4.37
2023-02-02T07:52:33.386Z,4.44
2023-02-02T07:54:05.228Z,4.51
2023-02-02T07:55:36.830Z,4.58
2023-02-02T07:57:08.531Z,4.58
2023-02-02T07:58:41.003Z,4.66
2023-02-02T08:00:13.087Z,4.60
2023-02-02T08:01:44.776Z,4.64
2023-02-02T08:03:16.778Z,4.73
2023-02-02T08:04:48.552Z,4.67
2023-02-02T08:06:26.312Z,4.66
2023-02-02T08:07:57.939Z,4.76
2023-02-02T08:09:29.631Z,4.79
2023-02-02T08:11:01.280Z,4.70
2023-02-02T08:12:33.301Z,4.79
2023-02-02T08:14:06.353Z,4.72
2023-02-02T08:15:37.993Z,4.68
2023-02-02T08:17:09.613Z,4.69
2023-02-02T08:18:42.253Z,4.77
2023-02-02T08:20:14.041Z,4.82
2023-02-02T08:21:45.678Z,4.81
2023-02-02T08:23:17.301Z,4.75
2023-02-02T08:24:49.325Z,4.79
2023-02-02T08:26:23.905Z,4.76
2023-02-02T08:28:01.310Z,4.74
2023-02-02T08:29:33.115Z,4.75
2023-02-02T08:31:14.196Z,4.72
2023-02-02T08:32:46.058Z,4.75
2023-02-02T08:34:17.901Z,4.76
2023-02-02T08:35:49.829Z,4.82
2023-02-02T08:37:21.568Z,4.66
2023-02-02T08:38:54.024Z,4.74
2023-02-02T08:40:25.728Z,4.85
2023-02-02T08:41:57.879Z,4.85
2023-02-02T08:43:29.618Z,4.97
2023-02-02T08:46:02.509Z,4.98
2023-02-02T08:46:53.052Z,5.05
2023-02-02T08:48:24.701Z,5.13
2023-02-02T08:49:56.547Z,5.14
2023-02-02T08:51:28.412Z,5.18
2023-02-02T08:52:59.990Z,5.19
2023-02-02T08:54:31.625Z,5.16
2023-02-02T08:56:06.660Z,5.23
2023-02-02T08:57:38.319Z,5.26
2023-02-02T08:59:09.963Z,5.18
2023-02-02T09:00:41.633Z,5.11
2023-02-02T09:02:16.986Z,5.06
2023-02-02T09:03:48.830Z,5.06
2023-02-02T09:05:20.404Z,5.08
2023-02-02T09:06:51.955Z,5.18
2023-02-02T09:08:23.582Z,5.17
2023-02-02T09:09:58.361Z,5.13
2023-02-02T09:11:30.197Z,5.11
2023-02-02T09:13:01.999Z,5.19
2023-02-02T09:14:33.640Z,5.13
2023-02-02T09:16:07.539Z,5.07
2023-02-02T09:17:39.455Z,5.04
2023-02-02T09:19:11.792Z,5.05
2023-02-02T09:20:43.611Z,5.15
2023-02-02T09:22:15.150Z,5.17
2023-02-02T09:23:48.212Z,5.14
2023-02-02T09:25:19.885Z,5.10
2023-02-02T09:26:51.591Z,5.14
2023-02-02T09:28:23.343Z,5.10
2023-02-02T09:29:54.974Z,5.19
2023-02-02T09:31:26.892Z,5.20
2023-02-02T09:32:58.811Z,5.19
2023-02-02T09:34:30.457Z,5.17
2023-02-02T09:36:11.258Z,5.16
2023-02-02T09:37:44.273Z,5.22
2023-02-02T09:39:17.866Z,5.21
2023-02-02T09:40:49.508Z,5.31
2023-02-02T09:42:29.226Z,5.32
2023-02-02T09:44:25.711Z,5.38
2023-02-02T09:46:06.857Z,5.38
2023-02-02T09:47:56.313Z,5.32
2023-02-02T09:49:45.850Z,5.15
2023-02-02T09:51:22.726Z,5.14
2023-02-02T09:53:17.034Z,5.23
2023-02-02T09:54:52.474Z,5.22
2023-02-02T09:56:29.513Z,5.18
2023-02-02T09:58:07.207Z,5.11
2023-02-02T09:59:42.986Z,5.15
2023-02-02T10:01:18.080Z,5.23
2023-02-02T10:02:55.810Z,5.32
2023-02-02T10:04:33.523Z,5.38
2023-02-02T10:06:33.171Z,5.25
2023-02-02T10:08:07.910Z,5.29
2023-02-02T10:09:43.548Z,5.47
2023-02-02T10:11:38.894Z,5.54
2023-02-02T10:13:17.534Z,5.46
2023-02-02T10:15:17.747Z,5.52
2023-02-02T10:16:54.297Z,5.40
2023-02-02T10:18:38.065Z,5.31
2023-02-02T10:20:30.579Z,5.37
2023-02-02T10:22:09.761Z,5.35
2023-02-02T10:23:44.406Z,5.37
2023-02-02T10:25:17.572Z,5.44
2023-02-02T10:26:56.406Z,5.51
2023-02-02T10:28:39.689Z,5.47
2023-02-02T10:30:37.280Z,5.61
2023-02-02T10:32:28.316Z,5.56
2023-02-02T10:34:41.126Z,5.53
2023-02-02T10:36:26.776Z,5.56
2023-02-02T10:38:31.429Z,5.53
2023-02-02T10:40:22.163Z,5.64
2023-02-02T10:42:05.548Z,5.61
2023-02-02T10:43:55.123Z,5.67
2023-02-02T10:45:26.877Z,5.55
2023-02-02T10:47:03.901Z,5.61
2023-02-02T10:48:36.078Z,5.61
2023-02-02T10:50:13.432Z,5.61
2023-02-02T10:51:55.196Z,5.61
2023-02-02T10:53:32.315Z,5.72
2023-02-02T10:55:31.344Z,5.68
2023-02-02T10:57:08.051Z,5.76
2023-02-02T10:58:56.741Z,5.71
2023-02-02T11:00:40.530Z,5.68
2023-02-02T11:02:20.636Z,5.66
2023-02-02T11:04:13.001Z,5.58
2023-02-02T11:06:03.032Z,5.48
2023-02-02T11:07:36.584Z,5.48
2023-02-02T11:09:12.844Z,5.44
2023-02-02T11:10:46.640Z,5.39
2023-02-02T11:12:34.933Z,5.39
2023-02-02T11:14:09.682Z,5.46
2023-02-02T11:15:41.881Z,5.41
2023-02-02T11:17:21.500Z,5.43
2023-02-02T11:18:54.138Z,5.41
2023-02-02T11:20:39.399Z,5.43
2023-02-02T11:22:32.365Z,5.42
2023-02-02T11:24:09.868Z,5.33
2023-02-02T11:25:43.267Z,5.39
2023-02-02T11:27:31.697Z,5.44
2023-02-02T11:29:03.633Z,5.48
2023-02-02T11:30:38.433Z,5.49
2023-02-02T11:32:32.580Z,5.43
2023-02-02T11:34:20.472Z,5.45
2023-02-02T11:36:00.215Z,5.39
2023-02-02T11:37:36.743Z,5.41
2023-02-02T11:39:24.488Z,5.46
2023-02-02T11:41:05.318Z,5.37
2023-02-02T11:42:37.062Z,5.44
2023-02-02T11:44:25.331Z,5.52
2023-02-02T11:46:04.016Z,5.55
2023-02-02T11:47:35.938Z,5.55
2023-02-02T11:49:16.785Z,5.48
2023-02-02T11:50:54.061Z,5.45
2023-02-02T11:52:27.909Z,5.42
2023-02-02T11:54:16.183Z,5.48
2023-02-02T11:55:47.953Z,5.51
2023-02-02T11:57:22.866Z,5.43
2023-02-02T11:58:56.672Z,5.51
2023-02-02T12:00:28.847Z,5.54
2023-02-02T12:02:30.708Z,5.65
2023-02-02T12:04:22.002Z,5.63
2023-02-02T12:05:54.077Z,5.61
2023-02-02T12:07:27.766Z,5.61
2023-02-02T12:09:02.394Z,5.68
2023-02-02T12:10:47.031Z,5.79
2023-02-02T12:12:34.446Z,5.69
2023-02-02T12:14:28.700Z,5.64
2023-02-02T12:16:26.133Z,5.66
2023-02-02T12:18:40.090Z,5.68
2023-02-02T12:20:27.869Z,5.77
2023-02-02T12:22:11.523Z,5.75
2023-02-02T12:24:05.024Z,5.67
2023-02-02T12:26:14.258Z,5.77
2023-02-02T12:27:48.937Z,5.66
2023-02-02T12:29:29.725Z,5.71
2023-02-02T12:31:20.061Z,5.74
2023-02-02T12:33:10.458Z,5.76
2023-02-02T12:34:51.565Z,5.88
2023-02-02T12:36:44.039Z,5.91
2023-02-02T12:38:33.774Z,5.96
2023-02-02T12:40:45.946Z,5.90
2023-02-02T12:42:48.117Z,5.87
2023-02-02T12:44:32.436Z,5.91
2023-02-02T12:46:22.800Z,5.94
2023-02-02T12:48:03.836Z,5.92
2023-02-02T12:49:54.257Z,5.93
2023-02-02T12:51:25.813Z,5.95
2023-02-02T12:53:20.891Z,6.02
2023-02-02T12:55:10.128Z,6.10
2023-02-02T12:57:02.655Z,6.18
2023-02-02T12:58:45.273Z,6.31
2023-02-02T13:00:39.748Z,6.19
2023-02-02T13:02:57.630Z,6.13
2023-02-02T13:05:03.177Z,6.33
2023-02-02T13:07:12.031Z,6.36
2023-02-02T13:08:55.025Z,6.42
2023-02-02T13:10:49.584Z,6.44
2023-02-02T13:12:23.939Z,6.34
2023-02-02T13:14:06.170Z,6.35
2023-02-02T13:15:47.570Z,6.27
2023-02-02T13:17:42.920Z,6.29
2023-02-02T13:19:28.706Z,6.29
2023-02-02T13:21:10.883Z,6.25
2023-02-02T13:22:45.683Z,6.30
2023-02-02T13:24:30.970Z,6.31
2023-02-02T13:26:13.499Z,6.36
2023-02-02T13:27:46.961Z,6.37
2023-02-02T13:29:44.320Z,6.45
2023-02-02T13:31:31.619Z,6.37
2023-02-02T13:33:26.388Z,6.46
2023-02-02T13:35:06.722Z,6.35
2023-02-02T13:36:44.146Z,6.39
2023-02-02T13:38:30.322Z,6.25
2023-02-02T13:40:20.597Z,6.27
2023-02-02T13:41:53.510Z,6.15
2023-02-02T13:44:18.615Z,6.00
2023-02-02T13:45:50.491Z,5.93
2023-02-02T13:47:54.374Z,5.92
2023-02-02T13:49:41.960Z,5.95
2023-02-02T13:51:19.829Z,5.96
2023-02-02T13:53:17.157Z,5.87
2023-02-02T13:55:00.830Z,5.75
2023-02-02T13:56:49.930Z,5.83
2023-02-02T13:58:44.504Z,5.92
2023-02-02T14:00:21.562Z,5.83
2023-02-02T14:01:54.864Z,5.87
2023-02-02T14:03:26.646Z,5.87
2023-02-02T14:05:01.913Z,5.73
2023-02-02T14:06:59.487Z,5.85
2023-02-02T14:08:32.130Z,5.74
2023-02-02T14:10:04.868Z,5.76
2023-02-02T14:11:43.310Z,5.76
2023-02-02T14:13:41.112Z,5.69
2023-02-02T14:15:13.605Z,5.85
2023-02-02T14:16:51.124Z,5.76
2023-02-02T14:18:49.637Z,5.72
2023-02-02T14:20:41.911Z,5.78
2023-02-02T14:22:13.788Z,5.86
2023-02-02T14:23:53.939Z,5.87
2023-02-02T14:25:33.648Z,5.80
2023-02-02T14:27:05.887Z,5.82
2023-02-02T14:28:43.584Z,5.77
2023-02-02T14:30:24.354Z,5.82
2023-02-02T14:31:58.016Z,5.92
2023-02-02T14:33:40.105Z,5.87
2023-02-02T14:35:11.799Z,5.86
2023-02-02T14:37:13.097Z,5.91
2023-02-02T14:39:08.739Z,5.94
2023-02-02T14:41:01.419Z,5.90
2023-02-02T14:43:00.895Z,5.86
2023-02-02T14:44:34.886Z,6.02
2023-02-02T14:46:15.959Z,6.11
2023-02-02T14:48:01.287Z,6.16
2023-02-02T14:49:35.628Z,6.01
2023-02-02T14:51:16.364Z,5.98
2023-02-02T14:52:59.940Z,6.00
2023-02-02T14:54:41.087Z,5.98
2023-02-02T14:56:16.044Z,5.96
2023-02-02T14:58:01.023Z,5.86
2023-02-02T14:59:37.648Z,5.79
2023-02-02T15:01:25.488Z,5.91
2023-02-02T15:03:35.727Z,5.84
2023-02-02T15:05:29.356Z,5.92
2023-02-02T15:07:23.962Z,5.79
2023-02-02T15:09:20.929Z,5.78
2023-02-02T15:10:56.870Z,5.79
2023-02-02T15:12:43.416Z,5.85
2023-02-02T15:14:16.403Z,5.91
2023-02-02T15:15:53.614Z,5.87
2023-02-02T15:17:34.264Z,5.79
2023-02-02T15:19:16.364Z,5.85
2023-02-02T15:20:54.854Z,5.77
2023-02-02T15:22:50.950Z,5.83
2023-02-02T15:24:27.119Z,5.76
2023-02-02T15:26:25.802Z,5.71
2023-02-02T15:28:19.037Z,5.83
2023-02-02T15:29:56.672Z,5.88
2023-02-02T15:31:34.132Z,5.77
2023-02-02T15:33:31.011Z,5.71
2023-02-02T15:35:07.304Z,5.74
2023-02-02T15:36:43.665Z,5.74
2023-02-02T15:38:19.158Z,5.72
2023-02-02T15:39:59.896Z,5.74
2023-02-02T15:41:34.785Z,5.77
2023-02-02T15:43:11.215Z,5.75
2023-02-02T15:44:42.858Z,5.79
2023-02-02T15:46:24.446Z,5.77
2023-02-02T15:47:58.122Z,5.63
2023-02-02T15:49:35.442Z,5.59
2023-02-02T15:51:16.214Z,5.71
2023-02-02T15:52:50.399Z,5.61
2023-02-02T15:54:32.833Z,5.63
2023-02-02T15:56:19.314Z,5.62
2023-02-02T15:57:55.248Z,5.61
2023-02-02T15:59:29.909Z,5.66
2023-02-02T16:01:03.852Z,5.64
2023-02-02T16:02:45.367Z,5.69
2023-02-02T16:04:16.923Z,5.61
2023-02-02T16:05:56.523Z,5.60
2023-02-02T16:07:33.913Z,5.63
2023-02-02T16:09:07.351Z,5.68
2023-02-02T16:10:39.464Z,5.64
2023-02-02T16:12:18.667Z,5.54
2023-02-02T16:13:53.445Z,5.58
2023-02-02T16:15:28.695Z,5.60
2023-02-02T16:17:22.792Z,5.63
2023-02-02T16:19:09.364Z,5.56
2023-02-02T16:20:42.426Z,5.69
2023-02-02T16:22:18.196Z,5.72
2023-02-02T16:23:51.192Z,5.74
2023-02-02T16:25:27.199Z,5.68
2023-02-02T16:27:02.067Z,5.59
2023-02-02T16:28:34.809Z,5.56
2023-02-02T16:30:09.720Z,5.65
2023-02-02T16:31:41.698Z,5.62
2023-02-02T16:33:30.318Z,5.50
2023-02-02T16:35:06.002Z,5.54
2023-02-02T16:36:37.755Z,5.61
2023-02-02T16:38:15.095Z,5.59
2023-02-02T16:39:47.266Z,5.60
2023-02-02T16:41:35.125Z,5.68
2023-02-02T16:43:28.598Z,5.61
2023-02-02T16:45:01.050Z,5.70
2023-02-02T16:46:45.831Z,5.69
2023-02-02T16:48:44.320Z,5.62
2023-02-02T16:50:27.866Z,5.56
2023-02-02T16:52:16.254Z,5.57
2023-02-02T16:53:57.562Z,5.54
2023-02-02T16:55:47.841Z,5.55
2023-02-02T16:57:25.130Z,5.58
2023-02-02T16:59:01.478Z,5.61
2023-02-02T17:00:33.592Z,5.54
2023-02-02T17:02:23.691Z,5.63
2023-02-02T17:03:56.157Z,5.67
2023-02-02T17:05:32.240Z,5.66
2023-02-02T17:07:09.180Z,5.59
2023-02-02T17:08:41.275Z,5.56
2023-02-02T17:10:29.501Z,5.50
2023-02-02T17:12:34.522Z,5.55
2023-02-02T17:14:28.784Z,5.65
2023-02-02T17:16:00.744Z,5.64
2023-02-02T17:17:32.513Z,5.52
2023-02-02T17:19:04.504Z,5.58
2023-02-02T17:20:36.112Z,5.62
2023-02-02T17:22:08.721Z,5.62
2023-02-02T17:23:41.107Z,5.56
2023-02-02T17:25:18.668Z,5.55
2023-02-02T17:26:50.873Z,5.61
2023-02-02T17:28:25.988Z,5.57
2023-02-02T17:30:00.996Z,5.53
2023-02-02T17:31:33.101Z,5.51
2023-02-02T17:33:06.079Z,5.56
2023-02-02T17:34:38.321Z,5.55
2023-02-02T17:36:13.550Z,5.59
2023-02-02T17:37:45.930Z,5.46
2023-02-02T17:39:18.674Z,5.42
2023-02-02T17:40:51.804Z,5.48
2023-02-02T17:42:31.455Z,5.53
2023-02-02T17:44:05.976Z,5.47
2023-02-02T17:45:38.838Z,5.58
2023-02-02T17:47:13.374Z,5.53
2023-02-02T17:48:45.546Z,5.47
2023-02-02T17:50:18.144Z,5.44
2023-02-02T17:51:51.008Z,5.45
2023-02-02T17:53:23.134Z,5.48
2023-02-02T17:54:55.295Z,5.54
2023-02-02T17:56:27.799Z,5.49
2023-02-02T17:58:00.526Z,5.50
2023-02-02T17:59:32.644Z,5.55
2023-02-02T18:01:05.101Z,5.56
2023-02-02T18:02:37.270Z,5.62
2023-02-02T18:04:12.881Z,5.54
2023-02-02T18:05:44.886Z,5.47
2023-02-02T18:07:16.668Z,5.55
2023-02-02T18:08:48.431Z,5.57
2023-02-02T18:10:24.813Z,5.50
2023-02-02T18:11:57.092Z,5.58
2023-02-02T18:13:29.611Z,5.52
2023-02-02T18:15:03.500Z,5.53
2023-02-02T18:16:35.664Z,5.48
2023-02-02T18:18:07.948Z,5.41
2023-02-02T18:19:44.959Z,5.47
2023-02-02T18:21:17.010Z,5.53
2023-02-02T18:22:51.045Z,5.40
2023-02-02T18:24:23.340Z,5.44
2023-02-02T18:25:55.696Z,5.49
2023-02-02T18:27:29.361Z,5.43
2023-02-02T18:29:01.248Z,5.47
2023-02-02T18:30:33.040Z,5.41
2023-02-02T18:32:04.938Z,5.33
2023-02-02T18:33:37.421Z,5.31
2023-02-02T18:35:11.865Z,5.32
2023-02-02T18:36:43.869Z,5.35
2023-02-02T18:38:15.951Z,5.40
2023-02-02T18:39:47.750Z,5.28
2023-02-02T18:41:21.603Z,5.28
2023-02-02T18:42:53.583Z,5.29
2023-02-02T18:44:25.975Z,5.34
2023-02-02T18:46:04.590Z,5.37
2023-02-02T18:47:36.574Z,5.33
2023-02-02T18:49:08.820Z,5.31
2023-02-02T18:50:40.719Z,5.26
2023-02-02T18:52:13.182Z,5.25
2023-02-02T18:53:46.723Z,5.27
2023-02-02T18:55:18.515Z,5.23
2023-02-02T18:56:50.428Z,5.15
2023-02-02T18:58:22.495Z,5.18
2023-02-02T18:59:54.616Z,5.15
2023-02-02T19:01:26.690Z,5.15
2023-02-02T19:02:58.494Z,5.15
2023-02-02T19:04:30.502Z,5.16
2023-02-02T19:06:23.089Z,5.15
2023-02-02T19:07:55.315Z,5.06
2023-02-02T19:09:27.616Z,5.15
2023-02-02T19:11:08.457Z,5.04
2023-02-02T19:12:40.895Z,5.18
2023-02-02T19:14:19.649Z,5.15
2023-02-02T19:15:54.615Z,5.18
2023-02-02T19:17:28.479Z,5.18
2023-02-02T19:19:08.910Z,5.22
2023-02-02T19:20:42.244Z,5.16
2023-02-02T19:22:23.172Z,5.19
2023-02-02T19:23:55.184Z,5.06
2023-02-02T19:25:27.613Z,5.20
2023-02-02T19:27:00.079Z,5.15
2023-02-02T19:28:32.707Z,5.11
2023-02-02T19:30:17.169Z,5.00
2023-02-02T19:32:14.941Z,5.06
2023-02-02T19:33:50.705Z,5.07
2023-02-02T19:35:24.617Z,4.97
2023-02-02T19:36:56.940Z,4.96
2023-02-02T19:38:30.319Z,4.88
2023-02-02T19:40:08.940Z,5.03
2023-02-02T19:41:43.332Z,4.97
2023-02-02T19:43:27.170Z,4.92
2023-02-02T19:44:59.716Z,4.97
2023-02-02T19:46:32.111Z,4.91
2023-02-02T19:48:18.095Z,4.86
2023-02-02T19:49:50.265Z,4.91
2023-02-02T19:51:47.493Z,4.77
2023-02-02T19:53:24.950Z,4.83
2023-02-02T19:54:57.133Z,4.81
2023-02-02T19:56:37.877Z,4.81
2023-02-02T19:58:28.805Z,4.87
2023-02-02T20:00:11.265Z,4.76
2023-02-02T20:01:46.050Z,4.69
2023-02-02T20:03:20.730Z,4.61
2023-02-02T20:05:23.413Z,4.60
2023-02-02T20:06:59.750Z,4.63
2023-02-02T20:08:43.620Z,4.60
2023-02-02T20:10:20.731Z,4.56
2023-02-02T20:11:53.264Z,4.47
2023-02-02T20:13:35.822Z,4.43
2023-02-02T20:15:35.603Z,4.43
2023-02-02T20:17:23.303Z,4.63
2023-02-02T20:18:57.773Z,4.57
2023-02-02T20:20:37.759Z,4.56
2023-02-02T20:22:28.377Z,4.55
2023-02-02T20:24:01.132Z,4.55
2023-02-02T20:25:33.060Z,4.58
2023-02-02T20:27:14.192Z,4.67
2023-02-02T20:28:46.335Z,4.72
2023-02-02T20:30:27.781Z,4.75
2023-02-02T20:31:59.686Z,4.75
2023-02-02T20:33:33.181Z,4.58
2023-02-02T20:35:23.145Z,4.54
2023-02-02T20:37:13.295Z,4.54
2023-02-02T20:38:45.767Z,4.42
2023-02-02T20:40:20.576Z,4.37
2023-02-02T20:41:54.901Z,4.41
2023-02-02T20:43:26.773Z,4.56
2023-02-02T20:44:58.489Z,4.53
2023-02-02T20:46:30.239Z,4.55
2023-02-02T20:48:01.992Z,4.59
2023-02-02T20:49:34.621Z,4.65
2023-02-02T20:51:06.808Z,4.58
2023-02-02T20:52:39.011Z,4.58
2023-02-02T20:54:10.977Z,4.64
2023-02-02T20:55:44.687Z,4.64
2023-02-02T20:57:17.528Z,4.62
2023-02-02T20:58:49.443Z,4.55
2023-02-02T21:00:24.149Z,4.56
2023-02-02T21:01:56.474Z,4.66
2023-02-02T21:03:28.700Z,4.58
2023-02-02T21:05:01.450Z,4.55
2023-02-02T21:06:34.870Z,4.52
2023-02-02T21:08:07.110Z,4.57
2023-02-02T21:09:39.376Z,4.54
2023-02-02T21:11:12.422Z,4.52
2023-02-02T21:12:44.830Z,4.46
2023-02-02T21:14:17.918Z,4.50
2023-02-02T21:15:49.801Z,4.44
2023-02-02T21:17:22.173Z,4.46
2023-02-02T21:18:54.226Z,4.41
2023-02-02T21:20:26.413Z,4.38
2023-02-02T21:21:58.751Z,4.31
2023-02-02T21:23:30.948Z,4.29
2023-02-02T21:25:02.976Z,4.28
2023-02-02T21:26:34.908Z,4.28
2023-02-02T21:28:06.779Z,4.26
2023-02-02T21:29:38.683Z,4.32
2023-02-02T21:31:14.653Z,4.31
2023-02-02T21:32:47.249Z,4.28
2023-02-02T21:34:21.107Z,4.25
2023-02-02T21:35:54.277Z,4.23